Time;durP1;ratioP1;P1;durP2;ratioP2;P2;SDS_P1;SDS_P2;PMS_P1;PMS_P2;Temp;Humidity;BMP_temperature;BMP_pressure;BME280_temperature;BME280_humidity;BME280_pressure;Samples;Min_cycle;Max_cycle;Signal;HPM_P1;HPM_P2
2023/04/10 00:00:30;;;;;;;21.27;13.80;;;;;;;13.93;50.18;102116.84;5083172;28;20524;-47
2023/04/10 00:02:57;;;;;;;22.80;13.70;;;;;;;13.82;50.49;102107.88;5083510;28;20066;-44
2023/04/10 00:05:22;;;;;;;23.42;14.50;;;;;;;13.76;50.53;102110.38;5080030;28;20028;-46
2023/04/10 00:07:48;;;;;;;21.15;13.52;;;;;;;13.67;50.87;102108.44;5064893;28;20040;-48
2023/04/10 00:10:13;;;;;;;22.48;13.88;;;;;;;14.00;50.16;102103.00;5079647;28;20072;-46
2023/04/10 00:12:38;;;;;;;22.80;14.27;;;;;;;14.08;49.95;102097.91;5083782;28;20032;-44
2023/04/10 00:15:04;;;;;;;22.20;13.95;;;;;;;13.84;50.67;102093.09;5080537;28;20024;-51
2023/04/10 00:17:29;;;;;;;22.67;13.55;;;;;;;13.90;50.64;102095.81;5083248;28;20410;-44
2023/04/10 00:19:55;;;;;;;23.65;14.35;;;;;;;14.00;50.41;102091.63;5083047;28;20224;-44
2023/04/10 00:22:20;;;;;;;24.15;13.70;;;;;;;13.82;50.96;102090.41;5079820;28;20028;-43
2023/04/10 00:24:45;;;;;;;22.50;13.73;;;;;;;13.86;50.67;102085.22;5082930;28;20032;-44
2023/04/10 00:27:10;;;;;;;23.15;14.43;;;;;;;13.76;51.01;102092.91;5047415;28;20036;-46
2023/04/10 00:29:36;;;;;;;23.02;14.15;;;;;;;13.82;50.83;102087.81;5081080;28;20547;-48
2023/04/10 00:32:01;;;;;;;21.42;13.73;;;;;;;13.91;50.75;102078.31;5081214;28;20035;-43
2023/04/10 00:34:26;;;;;;;21.38;13.75;;;;;;;13.89;50.76;102087.91;5083514;28;20028;-50
2023/04/10 00:36:52;;;;;;;22.85;14.10;;;;;;;13.72;51.45;102080.59;5083643;28;20525;-44
2023/04/10 00:39:17;;;;;;;22.65;13.85;;;;;;;13.75;50.58;102071.91;5079981;28;20096;-44
2023/04/10 00:41:43;;;;;;;23.45;14.30;;;;;;;13.75;51.09;102070.19;5082443;28;20036;-44
2023/04/10 00:44:08;;;;;;;22.60;13.68;;;;;;;13.93;50.91;102074.88;5079042;28;20043;-43
2023/04/10 00:46:36;;;;;;;24.73;14.50;;;;;;;13.86;51.00;102070.38;5064721;28;20051;-49
2023/04/10 00:49:01;;;;;;;21.63;13.88;;;;;;;13.82;51.07;102071.19;5083285;28;20088;-45
2023/04/10 00:51:26;;;;;;;21.80;14.48;;;;;;;13.58;51.87;102066.34;5065370;28;20167;-45
2023/04/10 00:53:55;;;;;;;26.08;14.85;;;;;;;13.36;52.50;102062.38;5081417;28;20097;-42
2023/04/10 00:56:22;;;;;;;24.08;14.80;;;;;;;13.48;52.17;102051.28;5083574;28;20032;-45
2023/04/10 00:58:47;;;;;;;21.45;13.32;;;;;;;13.53;52.03;102047.03;5086963;28;20046;-48
2023/04/10 01:01:13;;;;;;;23.75;14.45;;;;;;;13.35;52.51;102038.81;5079394;28;20054;-43
2023/04/10 01:03:40;;;;;;;26.92;14.15;;;;;;;13.39;52.78;102032.78;5082556;28;20032;-47
2023/04/10 01:06:40;;;;;;;22.77;14.45;;;;;;;13.62;52.11;102027.97;5078422;28;20142;-47
2023/04/10 01:09:23;;;;;;;22.02;13.77;;;;;;;13.60;52.00;102027.09;5076299;28;20032;-45
2023/04/10 01:12:02;;;;;;;21.77;13.52;;;;;;;13.61;52.04;102024.47;5083140;28;20070;-46
2023/04/10 01:14:53;;;;;;;22.42;13.85;;;;;;;13.25;52.89;102022.00;5079240;28;20031;-43
2023/04/10 01:17:30;;;;;;;23.48;14.25;;;;;;;12.98;53.84;102013.56;5077903;28;20038;-48
2023/04/10 01:20:19;;;;;;;24.35;14.60;;;;;;;13.27;53.18;102007.22;5082935;28;20039;-45
2023/04/10 01:22:44;;;;;;;23.20;14.27;;;;;;;13.42;52.76;102011.00;5072417;22;20390;-43
2023/04/10 01:25:18;;;;;;;23.55;13.60;;;;;;;13.25;53.15;102006.28;5077383;28;20063;-40
2023/04/10 01:28:10;;;;;;;21.90;13.98;;;;;;;13.14;53.46;102004.31;5081199;28;20036;-39
2023/04/10 01:30:36;;;;;;;23.98;13.18;;;;;;;13.19;53.43;101998.31;5077260;28;20032;-42
2023/04/10 01:33:04;;;;;;;20.90;13.57;;;;;;;13.30;53.20;102001.13;5078183;28;20035;-41
2023/04/10 01:35:32;;;;;;;21.42;13.57;;;;;;;13.14;53.70;101996.47;5079702;28;20050;-41
2023/04/10 01:38:00;;;;;;;23.23;13.68;;;;;;;13.03;54.12;102001.44;5081225;28;20039;-41
2023/04/10 01:40:27;;;;;;;21.90;13.52;;;;;;;13.15;53.76;101988.63;5077754;28;20028;-41
2023/04/10 01:42:55;;;;;;;23.73;14.10;;;;;;;12.96;54.30;102002.16;5081411;28;20036;-44
2023/04/10 01:45:24;;;;;;;21.25;13.38;;;;;;;13.12;53.66;101993.78;5077518;28;20142;-42
2023/04/10 01:47:50;;;;;;;21.88;13.50;;;;;;;13.07;54.02;101986.66;5082424;28;20036;-43
2023/04/10 01:50:17;;;;;;;20.33;12.98;;;;;;;13.05;54.06;101985.78;5079935;28;20063;-42
2023/04/10 01:52:44;;;;;;;21.77;13.20;;;;;;;13.17;54.04;101986.94;5081926;28;20063;-41
2023/04/10 01:55:09;;;;;;;22.13;13.88;;;;;;;12.89;54.66;101988.06;5077586;28;20555;-43
2023/04/10 01:57:35;;;;;;;21.83;13.85;;;;;;;12.70;54.86;101987.59;5080951;28;20040;-41
2023/04/10 02:00:01;;;;;;;22.35;14.10;;;;;;;13.04;54.55;101986.63;5078048;28;20047;-45
2023/04/10 02:02:31;;;;;;;21.77;13.25;;;;;;;13.03;54.33;101988.34;5080877;28;20109;-44
2023/04/10 02:04:56;;;;;;;22.58;13.50;;;;;;;12.94;54.75;101985.53;5080778;28;20419;-43
2023/04/10 02:07:44;;;;;;;21.60;13.40;;;;;;;13.00;54.65;101986.53;5077183;28;20115;-43
2023/04/10 02:10:16;;;;;;;23.00;13.40;;;;;;;13.07;54.16;101982.31;5071117;28;20039;-42
2023/04/10 02:12:55;;;;;;;22.15;13.52;;;;;;;12.93;54.86;101989.00;5078702;28;20044;-41
2023/04/10 02:15:22;;;;;;;21.80;13.52;;;;;;;13.02;54.13;101989.19;5076802;28;20131;-41
2023/04/10 02:17:50;;;;;;;22.90;13.10;;;;;;;13.02;54.68;101983.97;5080664;28;20087;-41
2023/04/10 02:20:18;;;;;;;23.20;12.52;;;;;;;13.28;53.55;101980.19;5077373;28;20020;-43
2023/04/10 02:22:43;;;;;;;21.73;13.13;;;;;;;13.06;54.66;101980.53;5080800;28;20040;-42
2023/04/10 02:25:09;;;;;;;22.85;12.73;;;;;;;13.37;53.53;101982.09;5077583;28;20555;-43
2023/04/10 02:27:36;;;;;;;21.77;12.98;;;;;;;13.39;53.31;101981.28;5080487;28;20032;-39
2023/04/10 02:30:03;;;;;;;22.23;12.88;;;;;;;13.33;53.56;101983.78;5078415;28;20525;-41
2023/04/10 02:32:29;;;;;;;20.05;12.85;;;;;;;13.42;53.19;101980.44;5081165;28;20371;-41
2023/04/10 02:34:55;;;;;;;20.58;12.98;;;;;;;13.45;53.27;101979.63;5082263;28;20047;-41
2023/04/10 02:37:21;;;;;;;21.65;12.73;;;;;;;13.42;53.21;101988.28;5078927;28;20082;-43
2023/04/10 02:39:46;;;;;;;19.75;12.18;;;;;;;13.40;53.20;101995.25;5082744;28;20149;-45
2023/04/10 02:42:12;;;;;;;22.00;13.60;;;;;;;13.33;53.67;101995.97;5082522;28;20028;-40
2023/04/10 02:44:38;;;;;;;21.73;12.73;;;;;;;13.20;54.09;101993.97;5084386;28;20028;-41
2023/04/10 02:47:04;;;;;;;20.55;12.93;;;;;;;13.35;53.88;101996.91;5081517;28;20030;-43
2023/04/10 02:49:30;;;;;;;22.67;13.05;;;;;;;13.09;54.44;101996.34;5076840;28;20039;-41
2023/04/10 02:51:56;;;;;;;23.38;13.30;;;;;;;13.33;53.99;101994.25;5084212;28;20036;-42
2023/04/10 02:54:21;;;;;;;21.52;13.32;;;;;;;13.26;54.32;101994.97;5080710;28;20035;-42
2023/04/10 02:56:46;;;;;;;21.23;12.73;;;;;;;13.37;53.98;101984.69;5083935;28;20557;-43
2023/04/10 02:59:12;;;;;;;20.60;13.07;;;;;;;13.18;54.60;101986.06;5080032;28;20150;-41
2023/04/10 03:01:38;;;;;;;20.80;13.23;;;;;;;13.20;54.65;101981.75;5065823;28;20567;-45
2023/04/10 03:04:04;;;;;;;23.10;13.57;;;;;;;13.07;55.17;101979.69;5080329;28;20443;-44
2023/04/10 03:06:29;;;;;;;21.00;13.18;;;;;;;13.20;55.04;101973.91;5075519;28;20029;-43
2023/04/10 03:08:55;;;;;;;21.02;13.27;;;;;;;13.22;54.99;101971.31;5077205;28;20028;-41
2023/04/10 03:11:21;;;;;;;20.63;13.07;;;;;;;13.03;55.38;101972.66;5083489;28;20033;-41
2023/04/10 03:13:47;;;;;;;20.58;13.10;;;;;;;13.14;55.07;101965.91;5083616;28;20119;-42
2023/04/10 03:16:13;;;;;;;19.42;12.57;;;;;;;13.28;54.80;101968.81;5079679;28;20062;-40
2023/04/10 03:18:38;;;;;;;20.67;13.05;;;;;;;12.84;55.64;101968.75;5083664;28;20533;-41
2023/04/10 03:21:04;;;;;;;20.65;12.57;;;;;;;13.08;55.04;101971.00;5080292;28;20056;-41
2023/04/10 03:23:29;;;;;;;18.38;12.10;;;;;;;13.17;54.75;101967.72;5075449;28;20394;-42
2023/04/10 03:25:55;;;;;;;22.75;12.23;;;;;;;13.37;54.22;101958.50;5082576;28;20081;-42
2023/04/10 03:28:20;;;;;;;20.13;11.98;;;;;;;13.30;54.20;101957.50;5079932;28;20473;-41
2023/04/10 03:30:46;;;;;;;19.25;12.07;;;;;;;13.39;53.80;101955.06;5083052;28;20040;-41
2023/04/10 03:33:12;;;;;;;18.17;11.88;;;;;;;13.22;54.13;101950.38;5079289;28;20559;-41
2023/04/10 03:35:37;;;;;;;21.83;12.13;;;;;;;13.38;53.75;101941.94;5082752;28;20032;-42
2023/04/10 03:38:02;;;;;;;18.08;11.30;;;;;;;13.20;54.01;101949.44;5079789;28;20055;-43
2023/04/10 03:40:28;;;;;;;18.35;11.85;;;;;;;13.12;53.96;101936.19;5083396;28;20025;-41
2023/04/10 03:42:53;;;;;;;17.40;11.55;;;;;;;13.25;53.53;101932.97;5084567;28;20528;-42
2023/04/10 03:45:18;;;;;;;20.48;12.05;;;;;;;13.40;53.17;101922.78;5082431;28;21316;-41
2023/04/10 03:47:44;;;;;;;18.27;11.50;;;;;;;13.45;52.70;101922.88;5085535;28;20574;-43
2023/04/10 03:50:09;;;;;;;17.70;11.25;;;;;;;13.56;52.38;101918.72;5079946;28;20486;-44
2023/04/10 03:52:34;;;;;;;18.70;11.05;;;;;;;13.44;52.50;101925.47;5081978;28;20032;-38
2023/04/10 03:55:00;;;;;;;16.95;11.15;;;;;;;13.39;52.34;101918.41;5080887;28;20510;-37
2023/04/10 03:57:25;;;;;;;17.60;11.40;;;;;;;13.49;52.26;101918.56;5084798;28;20028;-40
2023/04/10 03:59:50;;;;;;;16.52;10.95;;;;;;;13.47;52.03;101913.31;5083514;28;20036;-41
2023/04/10 04:02:16;;;;;;;17.25;10.88;;;;;;;13.38;52.32;101913.13;5079140;28;20063;-40
2023/04/10 04:04:41;;;;;;;16.45;10.60;;;;;;;13.47;52.14;101915.06;5082194;28;20655;-41
2023/04/10 04:07:07;;;;;;;16.00;10.52;;;;;;;13.39;51.89;101907.94;5079206;28;20075;-44
2023/04/10 04:09:33;;;;;;;16.02;10.35;;;;;;;13.52;51.53;101911.66;5083113;28;20093;-41
2023/04/10 04:11:58;;;;;;;17.65;10.68;;;;;;;13.45;51.56;101907.16;5082515;28;20040;-42
2023/04/10 04:14:23;;;;;;;15.73;10.43;;;;;;;13.49;51.48;101905.47;5078945;28;20036;-41
2023/04/10 04:16:49;;;;;;;15.27;9.98;;;;;;;13.50;51.17;101915.09;5082486;28;20127;-44
2023/04/10 04:19:14;;;;;;;16.63;10.20;;;;;;;13.54;51.30;101909.94;5079208;28;20024;-40
2023/04/10 04:21:40;;;;;;;15.80;9.98;;;;;;;13.61;50.81;101900.44;5082744;28;20108;-37
2023/04/10 04:24:05;;;;;;;16.85;10.25;;;;;;;13.63;50.73;101899.63;5080353;28;20181;-42
2023/04/10 04:26:32;;;;;;;15.80;9.40;;;;;;;13.56;50.92;101895.13;5085279;28;20024;-42
2023/04/10 04:28:57;;;;;;;18.13;9.93;;;;;;;13.45;50.99;101887.94;5085015;28;20078;-42
2023/04/10 04:31:23;;;;;;;15.23;10.10;;;;;;;13.37;50.90;101885.16;5081232;28;20527;-42
2023/04/10 04:33:49;;;;;;;14.32;9.40;;;;;;;13.62;50.38;101878.63;5084793;28;20032;-41
2023/04/10 04:36:15;;;;;;;15.13;9.40;;;;;;;13.67;50.28;101877.84;5080803;28;20028;-42
2023/04/10 04:38:41;;;;;;;14.27;9.38;;;;;;;13.55;50.29;101885.50;5084422;28;20372;-41
2023/04/10 04:41:06;;;;;;;13.95;9.45;;;;;;;13.62;49.95;101861.16;5079979;28;20058;-43
2023/04/10 04:43:31;;;;;;;14.52;9.52;;;;;;;13.65;49.69;101874.34;5083647;28;20038;-42
2023/04/10 04:45:57;;;;;;;14.40;9.57;;;;;;;13.67;49.98;101869.09;5082788;28;20118;-41
2023/04/10 04:48:22;;;;;;;15.82;9.25;;;;;;;13.80;49.76;101866.72;5078715;28;20164;-42
2023/04/10 04:50:47;;;;;;;14.23;9.43;;;;;;;13.63;49.83;101859.44;5081736;28;20036;-44
2023/04/10 04:53:12;;;;;;;13.65;9.00;;;;;;;13.84;49.28;101864.16;5078675;28;20063;-46
2023/04/10 04:55:38;;;;;;;13.93;8.82;;;;;;;13.72;49.48;101864.84;5081674;28;20055;-46
2023/04/10 04:58:03;;;;;;;14.07;9.02;;;;;;;13.75;49.38;101863.13;5078984;28;20325;-45
2023/04/10 05:00:29;;;;;;;14.63;9.43;;;;;;;13.93;48.72;101867.78;5081220;28;20028;-43
2023/04/10 05:02:54;;;;;;;14.60;8.93;;;;;;;13.92;48.89;101873.88;5081775;28;20086;-43
2023/04/10 05:05:19;;;;;;;13.93;8.93;;;;;;;13.89;48.85;101868.59;5078204;28;20043;-42
2023/04/10 05:07:44;;;;;;;14.52;9.25;;;;;;;13.95;48.67;101873.94;5081232;28;20032;-41
2023/04/10 05:10:10;;;;;;;14.00;8.98;;;;;;;13.99;48.15;101864.38;5078628;28;20032;-42
2023/04/10 05:12:35;;;;;;;14.40;9.25;;;;;;;13.92;48.56;101865.13;5082084;28;20371;-43
2023/04/10 05:15:00;;;;;;;13.55;9.00;;;;;;;13.76;48.75;101857.03;5079503;28;20064;-38
2023/04/10 05:17:26;;;;;;;14.63;9.40;;;;;;;13.83;48.75;101858.03;5081011;28;20032;-42
2023/04/10 05:19:51;;;;;;;14.63;9.32;;;;;;;13.95;48.26;101859.94;5081720;28;20028;-40
2023/04/10 05:22:17;;;;;;;13.52;8.95;;;;;;;14.09;48.68;101863.63;5078845;28;20118;-41
2023/04/10 05:24:42;;;;;;;14.25;9.05;;;;;;;14.00;48.56;101863.50;5082841;28;20406;-46
2023/04/10 05:27:07;;;;;;;14.13;9.13;;;;;;;14.05;48.33;101862.72;5078791;28;20513;-42
2023/04/10 05:29:33;;;;;;;13.45;8.82;;;;;;;14.13;47.80;101866.34;5082322;28;20032;-40
2023/04/10 05:31:59;;;;;;;14.15;8.80;;;;;;;14.17;47.69;101864.63;5083169;28;20032;-41
2023/04/10 05:34:24;;;;;;;12.18;8.48;;;;;;;14.00;48.01;101855.66;5079852;28;20111;-40
2023/04/10 05:36:49;;;;;;;13.85;8.73;;;;;;;14.20;47.86;101857.72;5081670;28;20032;-39
2023/04/10 05:39:15;;;;;;;15.25;8.93;;;;;;;14.26;47.31;101853.41;5077759;28;20040;-44
2023/04/10 05:41:40;;;;;;;13.27;8.50;;;;;;;14.34;47.14;101852.63;5082841;28;20053;-40
2023/04/10 05:44:06;;;;;;;13.82;8.65;;;;;;;14.18;47.41;101853.28;5078237;28;20039;-44
2023/04/10 05:46:31;;;;;;;13.30;8.75;;;;;;;14.28;47.01;101841.19;5081411;28;20062;-43
2023/04/10 05:48:57;;;;;;;15.55;8.80;;;;;;;13.98;47.61;101839.88;5080951;28;20036;-43
2023/04/10 05:51:22;;;;;;;14.13;8.55;;;;;;;14.16;47.35;101841.88;5077055;28;20094;-42
2023/04/10 05:53:49;;;;;;;14.02;8.70;;;;;;;14.29;46.55;101835.97;5080772;28;20100;-41
2023/04/10 05:56:15;;;;;;;13.65;8.70;;;;;;;14.04;47.02;101828.59;5077501;28;20115;-41
2023/04/10 05:58:40;;;;;;;14.32;8.85;;;;;;;14.26;46.70;101843.81;5081000;28;20116;-41
2023/04/10 06:01:06;;;;;;;14.75;9.07;;;;;;;14.31;46.36;101836.00;5078340;28;20039;-41
2023/04/10 06:03:31;;;;;;;13.23;9.07;;;;;;;14.32;46.47;101828.16;5085562;28;20048;-40
2023/04/10 06:05:57;;;;;;;13.75;8.75;;;;;;;14.22;46.04;101835.00;5084923;28;20028;-40
2023/04/10 06:08:22;;;;;;;14.57;8.90;;;;;;;14.34;45.86;101829.03;5079072;28;20028;-43
2023/04/10 06:10:48;;;;;;;13.23;8.52;;;;;;;14.56;45.74;101831.13;5080549;28;20116;-42
2023/04/10 06:13:16;;;;;;;12.93;8.93;;;;;;;14.48;45.51;101824.00;5077974;28;20124;-45
2023/04/10 06:15:41;;;;;;;13.07;8.27;;;;;;;14.68;45.25;101812.00;5084831;28;20032;-40
2023/04/10 06:18:07;;;;;;;12.88;8.95;;;;;;;14.65;45.49;101814.59;5085377;28;20039;-43
2023/04/10 06:20:32;;;;;;;12.52;8.23;;;;;;;14.77;44.81;101806.84;5088927;28;20051;-42
2023/04/10 06:22:58;;;;;;;11.35;7.97;;;;;;;14.70;44.78;101805.00;5085243;28;20402;-41
2023/04/10 06:25:23;;;;;;;12.38;8.15;;;;;;;14.43;44.98;101799.44;5081051;28;20490;-44
2023/04/10 06:27:49;;;;;;;12.52;8.23;;;;;;;14.82;44.34;101789.38;5083961;28;20039;-41
2023/04/10 06:30:14;;;;;;;14.13;8.57;;;;;;;14.82;44.37;101789.38;5081000;28;20039;-41
2023/04/10 06:32:40;;;;;;;13.48;7.70;;;;;;;14.57;45.42;101784.75;5084173;28;20024;-38
2023/04/10 06:35:06;;;;;;;12.43;8.55;;;;;;;14.71;44.83;101782.28;5080806;28;20028;-40
2023/04/10 06:37:31;;;;;;;15.05;8.93;;;;;;;14.61;45.66;101768.19;5084860;28;20028;-40
2023/04/10 06:40:09;;;;;;;12.98;8.52;;;;;;;14.69;46.01;101771.78;5084023;28;20393;-40
2023/04/10 06:42:35;;;;;;;12.73;8.32;;;;;;;14.64;45.83;101767.34;5082581;28;20028;-44
2023/04/10 06:45:00;;;;;;;13.40;8.77;;;;;;;14.78;45.76;101769.22;5077187;28;20077;-39
2023/04/10 06:47:26;;;;;;;13.85;8.82;;;;;;;14.98;45.56;101766.81;5083466;28;20115;-41
2023/04/10 06:49:51;;;;;;;12.73;8.60;;;;;;;14.86;46.06;101766.69;5083796;28;20031;-41
2023/04/10 06:52:17;;;;;;;12.73;8.82;;;;;;;14.83;45.90;101764.91;5080189;28;20028;-41
2023/04/10 06:54:42;;;;;;;14.40;8.90;;;;;;;15.14;45.44;101758.19;5084196;28;20028;-44
2023/04/10 06:57:08;;;;;;;12.75;8.48;;;;;;;15.05;45.18;101757.25;5061742;28;20375;-41
2023/04/10 06:59:34;;;;;;;13.25;8.73;;;;;;;15.26;44.83;101757.41;5062710;28;20131;-42
2023/04/10 07:02:00;;;;;;;13.30;8.82;;;;;;;15.62;44.41;101768.25;5080040;28;20075;-46
2023/04/10 07:04:25;;;;;;;13.00;8.63;;;;;;;15.70;44.22;101758.66;5081305;28;20544;-42
2023/04/10 07:06:51;;;;;;;12.88;8.50;;;;;;;15.63;44.00;101756.88;5083714;28;20036;-42
2023/04/10 07:09:16;;;;;;;15.20;8.70;;;;;;;15.65;44.07;101757.75;5080194;28;20043;-41
2023/04/10 07:11:42;;;;;;;12.63;8.48;;;;;;;15.75;43.78;101756.06;5084433;28;20028;-40
2023/04/10 07:14:07;;;;;;;13.90;8.18;;;;;;;15.53;43.45;101754.16;5082669;28;20119;-40
2023/04/10 07:16:32;;;;;;;12.05;7.90;;;;;;;15.54;43.82;101748.94;5086873;28;20435;-42
2023/04/10 07:18:57;;;;;;;12.25;8.52;;;;;;;15.62;42.96;101743.69;5083892;28;20031;-45
2023/04/10 07:21:23;;;;;;;12.02;8.27;;;;;;;15.75;42.97;101741.16;5080061;28;20170;-41
2023/04/10 07:23:48;;;;;;;14.77;8.23;;;;;;;15.53;43.04;101741.91;5083145;28;20043;-41
2023/04/10 07:26:14;;;;;;;12.20;8.30;;;;;;;15.39;43.41;101730.38;5079820;28;20020;-42
2023/04/10 07:28:39;;;;;;;11.80;8.13;;;;;;;15.66;42.83;101720.09;5082427;28;20486;-40
2023/04/10 07:31:06;;;;;;;11.98;7.95;;;;;;;15.65;42.47;101720.09;5079902;28;20061;-37
2023/04/10 07:33:32;;;;;;;11.75;7.93;;;;;;;15.68;42.54;101714.81;5083717;28;20517;-41
2023/04/10 07:35:57;;;;;;;11.05;7.80;;;;;;;15.70;42.39;101716.59;5083142;28;20032;-44
2023/04/10 07:38:23;;;;;;;11.35;7.90;;;;;;;15.75;41.84;101706.09;5079903;28;20038;-41
2023/04/10 07:40:54;;;;;;;12.60;8.32;;;;;;;15.95;42.05;101704.47;5082906;28;20111;-41
2023/04/10 07:43:20;;;;;;;12.32;8.07;;;;;;;16.09;41.48;101701.91;5079695;28;20383;-40
2023/04/10 07:45:46;;;;;;;11.77;8.00;;;;;;;16.27;41.09;101706.34;5083421;28;20031;-41
2023/04/10 07:48:11;;;;;;;11.63;7.90;;;;;;;16.29;41.13;101692.31;5079873;28;20043;-40
2023/04/10 07:50:36;;;;;;;11.60;8.43;;;;;;;16.27;41.12;101687.94;5084321;28;20441;-40
2023/04/10 07:53:06;;;;;;;12.02;7.90;;;;;;;16.02;41.31;101679.06;5081528;28;20517;-40
2023/04/10 07:55:31;;;;;;;13.85;8.43;;;;;;;16.38;40.87;101673.94;5077328;28;20024;-42
2023/04/10 07:57:57;;;;;;;13.23;8.38;;;;;;;16.24;41.53;101675.63;5083938;28;20038;-40
2023/04/10 08:00:22;;;;;;;12.63;8.40;;;;;;;16.54;40.49;101673.06;5080282;28;20417;-40
2023/04/10 08:02:47;;;;;;;12.63;8.23;;;;;;;16.43;40.98;101673.94;5083894;28;20512;-42
2023/04/10 08:05:12;;;;;;;12.80;8.40;;;;;;;16.25;40.68;101658.97;5081213;28;20036;-40
2023/04/10 08:07:38;;;;;;;12.25;8.57;;;;;;;16.21;41.08;101655.47;5084292;28;20088;-43
2023/04/10 08:10:03;;;;;;;13.20;8.50;;;;;;;16.20;41.38;101651.06;5080467;28;20509;-41
2023/04/10 08:12:32;;;;;;;12.82;8.60;;;;;;;15.94;41.64;101659.75;5082852;28;20032;-40
2023/04/10 08:14:58;;;;;;;12.80;8.57;;;;;;;16.13;41.33;101657.19;5083081;28;20032;-39
2023/04/10 08:17:23;;;;;;;12.48;8.55;;;;;;;16.04;41.69;101648.41;5079107;28;20577;-40
2023/04/10 08:19:48;;;;;;;12.10;8.70;;;;;;;16.38;41.20;101646.72;5083571;28;20402;-40
2023/04/10 08:22:13;;;;;;;13.18;8.85;;;;;;;16.46;41.24;101637.97;5079767;28;20036;-41
2023/04/10 08:24:39;;;;;;;12.40;8.40;;;;;;;16.71;40.91;101638.88;5082862;28;20024;-40
2023/04/10 08:27:04;;;;;;;13.98;8.15;;;;;;;16.92;40.96;101638.91;5080002;28;20028;-39
2023/04/10 08:29:29;;;;;;;12.38;8.50;;;;;;;17.01;40.73;101636.28;5083131;28;20028;-40
2023/04/10 08:31:57;;;;;;;11.93;8.15;;;;;;;17.02;40.23;101637.13;5082620;28;20040;-39
2023/04/10 08:34:23;;;;;;;12.55;8.25;;;;;;;17.04;40.23;101633.63;5078658;28;20401;-41
2023/04/10 08:36:48;;;;;;;13.07;8.90;;;;;;;17.08;40.08;101633.63;5082299;28;20043;-40
2023/04/10 08:39:13;;;;;;;12.50;8.50;;;;;;;17.20;39.51;101618.66;5079237;28;20040;-41
2023/04/10 08:41:40;;;;;;;13.23;8.27;;;;;;;17.07;39.65;101619.59;5083334;28;20028;-42
2023/04/10 08:44:05;;;;;;;12.77;8.85;;;;;;;17.16;39.98;101613.41;5079892;28;20028;-42
2023/04/10 08:46:35;;;;;;;12.05;8.57;;;;;;;17.18;39.51;101602.00;5083396;28;20539;-41
2023/04/10 08:49:02;;;;;;;12.95;8.60;;;;;;;17.16;39.64;101605.50;5078496;28;20486;-38
2023/04/10 08:51:34;;;;;;;13.82;8.68;;;;;;;17.20;39.35;101602.00;5081167;28;20059;-40
2023/04/10 08:54:18;;;;;;;11.52;8.32;;;;;;;17.71;38.80;101593.94;5078459;28;20434;-37
2023/04/10 08:56:49;;;;;;;13.20;8.13;;;;;;;17.88;38.48;101588.56;5076719;28;20043;-41
2023/04/10 08:59:15;;;;;;;11.30;8.52;;;;;;;18.03;38.65;101596.41;5070167;28;20069;-40
2023/04/10 09:01:40;;;;;;;13.45;8.50;;;;;;;17.92;38.51;101589.44;5081979;28;20032;-40
2023/04/10 09:04:05;;;;;;;12.15;8.32;;;;;;;18.24;38.55;101590.97;5078262;28;20024;-37
2023/04/10 09:06:31;;;;;;;11.73;8.60;;;;;;;18.13;38.69;101587.53;5081799;28;20035;-40
2023/04/10 09:08:58;;;;;;;12.40;8.55;;;;;;;18.18;38.60;101595.41;5081833;28;20028;-40
2023/04/10 09:11:23;;;;;;;13.02;8.48;;;;;;;18.18;38.46;101591.03;5077744;28;20042;-41
2023/04/10 09:13:49;;;;;;;11.38;7.68;;;;;;;18.42;38.38;101584.69;5081339;28;20040;-40
2023/04/10 09:16:15;;;;;;;11.85;8.52;;;;;;;18.21;37.86;101567.25;5077943;28;20540;-40
2023/04/10 09:18:42;;;;;;;11.45;8.27;;;;;;;18.42;38.03;101565.38;5082058;28;20040;-40
2023/04/10 09:21:09;;;;;;;11.88;8.18;;;;;;;18.35;38.07;101559.25;5077896;28;20516;-41
2023/04/10 09:23:35;;;;;;;14.25;8.45;;;;;;;17.92;38.99;101550.75;5082319;28;20077;-43
2023/04/10 09:26:00;;;;;;;12.80;8.77;;;;;;;18.21;38.26;101546.16;5074880;28;20036;-39
2023/04/10 09:28:26;;;;;;;14.90;9.68;;;;;;;17.91;38.95;101543.72;5081295;28;20047;-43
2023/04/10 09:30:51;;;;;;;16.38;10.45;;;;;;;18.08;38.40;101540.97;5081465;28;20116;-41
2023/04/10 09:33:22;;;;;;;22.60;11.20;;;;;;;17.66;38.84;101531.56;5077962;28;20096;-40
2023/04/10 09:35:48;;;;;;;21.75;12.68;;;;;;;17.79;39.06;101535.88;5080888;28;20455;-39
2023/04/10 09:38:18;;;;;;;25.65;13.30;;;;;;;17.72;39.78;101540.31;5077587;28;20466;-39
2023/04/10 09:40:45;;;;;;;25.20;13.30;;;;;;;17.89;39.11;101545.47;5081213;28;20035;-41
2023/04/10 09:43:22;;;;;;;24.92;12.95;;;;;;;18.01;39.13;101544.53;5077382;28;20026;-39
2023/04/10 09:45:56;;;;;;;20.35;11.60;;;;;;;17.84;39.20;101537.59;5081264;28;20510;-40
2023/04/10 09:48:23;;;;;;;18.13;11.40;;;;;;;17.57;39.71;101529.78;5077690;28;20031;-40
2023/04/10 09:50:49;;;;;;;23.95;13.25;;;;;;;17.62;39.07;101525.44;5081779;28;20036;-43
2023/04/10 09:53:18;;;;;;;22.83;13.32;;;;;;;17.82;39.64;101518.25;5081410;28;20115;-41
2023/04/10 09:55:44;;;;;;;25.52;14.25;;;;;;;18.30;38.54;101508.22;5084905;28;20119;-39
2023/04/10 09:58:11;;;;;;;30.88;15.88;;;;;;;18.35;38.53;101509.09;5081870;28;20032;-40
2023/04/10 10:00:41;;;;;;;43.65;20.75;;;;;;;18.53;38.22;101513.34;5085483;28;20032;-38
2023/04/10 10:03:12;;;;;;;46.92;21.98;;;;;;;18.99;37.43;101501.44;5081783;28;20525;-40
2023/04/10 10:05:40;;;;;;;56.70;25.50;;;;;;;19.08;37.67;101502.22;5085463;28;20035;-41
2023/04/10 10:08:07;;;;;;;55.10;24.77;;;;;;;19.29;37.64;101497.53;5082605;28;20043;-40
2023/04/10 10:10:33;;;;;;;61.25;26.33;;;;;;;19.40;37.10;101493.00;5086573;28;20030;-39
2023/04/10 10:13:00;;;;;;;58.35;27.30;;;;;;;19.50;36.67;101483.22;5086550;28;20032;-39
2023/04/10 10:15:37;;;;;;;58.20;26.88;;;;;;;20.02;36.62;101485.09;5083695;28;20454;-40
2023/04/10 10:18:15;;;;;;;67.53;29.30;;;;;;;19.98;36.07;101491.34;5075036;28;20406;-40
2023/04/10 10:20:43;;;;;;;63.92;30.52;;;;;;;20.17;36.26;101484.84;5080779;28;20028;-40
2023/04/10 10:23:09;;;;;;;69.55;30.63;;;;;;;20.52;35.85;101484.28;5081325;28;20055;-40
2023/04/10 10:25:35;;;;;;;72.03;32.67;;;;;;;20.28;35.95;101472.31;5085108;28;20501;-40
2023/04/10 10:28:04;;;;;;;68.18;30.80;;;;;;;20.44;35.79;101463.22;5070016;28;20116;-39
2023/04/10 10:30:32;;;;;;;61.33;27.17;;;;;;;20.36;35.58;101443.09;5084228;28;20032;-41
2023/04/10 10:32:59;;;;;;;61.47;28.42;;;;;;;20.26;35.52;101448.50;5084421;28;20038;-40
2023/04/10 10:35:26;;;;;;;57.40;25.00;;;;;;;20.70;35.68;101436.25;5080484;28;20032;-40
2023/04/10 10:37:53;;;;;;;52.38;24.55;;;;;;;20.41;35.97;101426.22;5086020;28;20055;-43
2023/04/10 10:40:23;;;;;;;46.85;23.02;;;;;;;20.59;35.62;101424.97;5083308;28;20189;-41
2023/04/10 10:42:55;;;;;;;40.50;20.75;;;;;;;20.16;36.29;101412.50;5085850;28;20121;-41
2023/04/10 10:45:35;;;;;;;37.92;19.92;;;;;;;20.34;36.38;101410.44;5080055;28;20987;-41
2023/04/10 10:48:00;;;;;;;39.70;18.40;;;;;;;20.49;36.19;101407.53;5081050;28;20501;-37
2023/04/10 10:50:52;;;;;;;36.25;17.65;;;;;;;20.59;35.44;101388.78;5084089;28;20047;-40
2023/04/10 10:53:30;;;;;;;37.88;18.27;;;;;;;20.83;35.78;101386.53;5071209;28;20440;-41
2023/04/10 10:55:55;;;;;;;32.45;16.52;;;;;;;20.81;35.65;101385.66;5083508;28;20063;-40
2023/04/10 10:58:47;;;;;;;32.00;16.23;;;;;;;21.21;35.00;101381.31;5080442;28;20427;-39
2023/04/10 11:01:13;;;;;;;30.77;15.30;;;;;;;21.21;35.10;101376.00;5078596;28;20056;-43
2023/04/10 11:03:39;;;;;;;25.77;14.23;;;;;;;21.18;35.18;101372.53;5083256;28;20541;-39
2023/04/10 11:06:08;;;;;;;25.75;13.80;;;;;;;21.17;35.49;101368.13;5080678;28;20032;-41
2023/04/10 11:08:53;;;;;;;22.10;12.73;;;;;;;21.23;34.83;101368.88;5077557;28;20454;-40
2023/04/10 11:11:22;;;;;;;21.10;12.48;;;;;;;21.27;34.89;101365.25;5076317;28;20032;-40